METAR AND TAF INFORMATION
METAR FOR EBFN
ADDS - METARS form results

(0320 UTC 09 February 2023)
Data provider http://aviationweather.gov/metar/data/
 
METAR text: EBFN 090255Z AUTO 18005KT 9999 NCD M02/M05 Q1030 BLU
Conditions at: EBFN (KOKSIJDE (BEL-AF, BE) observed 0255 UTC 09 February 2023
Temperature: -2.0°C (28°F)
Dewpoint: -5.0°C (23°F) [RH = 80%]
Pressure (altimeter): 30.41 inches Hg (1030.0 mb)
Winds: from the S (180 degrees) at 6 MPH (5 knots; 2.6 m/s)
Visibility: 6 or more miles (10+ km)
Ceiling: at least 12,000 feet AGL
Clouds: sky clear below 12,000 feet AGL
Weather: no significant weather observed at this time

METAR text: EBFN 090225Z AUTO VRB02KT 9999 NCD M02/M05 Q1031 BLU
Conditions at: EBFN (KOKSIJDE (BEL-AF, BE) observed 0225 UTC 09 February 2023
Temperature: -2.0°C (28°F)
Dewpoint: -5.0°C (23°F) [RH = 80%]
Pressure (altimeter): 30.44 inches Hg (1031.0 mb)
Winds: variable direction winds at 2 MPH (2 knots; 1.0 m/s)
Visibility: 6 or more miles (10+ km)
Ceiling: at least 12,000 feet AGL
Clouds: sky clear below 12,000 feet AGL
Weather: no significant weather observed at this time

Forecast for: EBFN (KOKSIJDE (BEL-AF, BE)
Text: TAF EBFN 081541Z 0819/0907 17005KT 9999 SCT300
Forecast period: 1900 UTC 08 February 2023 to 0100 UTC 09 February 2023
Forecast type: FROM: standard forecast or significant change
Winds: from the S (170 degrees) at 6 MPH (5 knots; 2.6 m/s)
Visibility: 6 or more miles (10+ km)
Ceiling: at least 12,000 feet AGL
Clouds: scattered clouds at 30000 feet AGL
Weather: no significant weather forecast for this period
Text: BECMG 0901/0903 20008KT BKN300
Forecast period: 0100 to 0700 UTC 09 February 2023
Forecast type: BECOMING: Conditions expected to become as follows by 0300 UTC 09 February 2023
Winds: from the SSW (200 degrees) at 9 MPH (8 knots; 4.1 m/s)
Visibility: 6 or more miles (10+ km)
Ceiling: 30000 feet AGL
Clouds: broken clouds at 30000 feet AGL
Weather: no significant weather forecast for this period
Text: PROB40
Forecast period: 0000 to 0700 UTC 09 February 2023
Forecast type: TEMPORARY: The following changes expected for less than half the time period
Visibility: 3 miles (5 km)
Ceiling: unknown
Clouds: missing
Weather: BR  (mist)

 AIRPORT MAP

 RUNWAY INFORMATION
Runway 11 Runway length 8786 ft Runway width 164 ft
Runway elevation 14 ft Runway displaced threshold 1526 ft Runway heading 108
Runway 29 Runway length 8786 ft Runway width 164 ft
Runway elevation 20 ft Runway displaced threshold 311 ft Runway heading 288

 AIRPORT FREQUENCIES
Type APP Name APP Frequency 122.5 MHZ
Type EMR Name SAR Frequency 123.1 MHZ
Type EMR Name SAR Frequency 568 MHZ
Type GND Name TAXI Frequency 122.1 MHZ
Type INFO Name BELGA INFO Frequency 129.325 MHZ
Type TWR Name TWR Frequency 122.1 MHZ

 AIRPORT NEAR NAVIGATION AIDS
Type VORTAC Name Koksy Frequency 114500 KHZ